Yellowstone Natl Park, WY

5:46 PM MDT on June 21, 2018 (GMT -0600)
West Yellowstone | | Change Station
Active Advisory: Special Statement

Elev 6650 ft 44.69 °N, 111.12 °W | Updated 11 minutes ago

Mostly Cloudy
Mostly Cloudy
54 °F
Feels Like 54 °F
N
5
Wind Variable Wind from Variable

Today
High -- | Low -- °F
--% Chance of Precip.
Yesterday
High -- | Low -- °F
Precip. -- in
Pressure 30.15 in
Visibility 10.0 miles
Clouds Clear
Dew Point 46 °F
Humidity 77%
Rainfall 0.00 in
Snow Depth Not available.
5:37 AM 9:10 PM
Waxing Gibbous, 66% visible
METAR KWYS 212335Z AUTO VRB04KT 10SM CLR 12/08 A3015 RMK AO2
Pressure 30.15 in
Visibility 10.0 miles
Clouds Clear
Dew Point 46 °F
Humidity 77%
Rainfall 0.00 in
Snow Depth Not available.
5:37 AM 9:10 PM
Waxing Gibbous, 66% visible
METAR KWYS 212335Z AUTO VRB04KT 10SM CLR 12/08 A3015 RMK AO2

Get Your Daily Forecast Email!

Thanks for signing up!

Be on the lookout for a verification email in your inbox.

You'll start receiving severe weather alerts in your inbox..

×

10-Day Weather Forecast

Almanac

Astronomy

Jun. 21, 2018 Rise Set
Actual Time
Civil Twilight
Nautical Twilight
Astronomical Twilight
Moon
Length of Visible Light
Length of Day
Tomorrow will be .
, % of the Moon is Illuminated

Today's Extremes

State Highs State Lows

Community

WunderPhotos

Category 6

Welcome to Category 6. This is the collective home for Weather Underground's featured writeups by Dr. Jeff Masters (right), Bob Henson (left), Chris Burt, and other regular contributors.

Nearby

Air Quality

  Air Quality AQ Index Pollutant
Not available.

Snow Depth

Station Depth Elevation

Earthquake Activity

City Distance Mag. Time & Date
Minimum magnitude displayed is 2.5.

Coastal Water Temperatures

Place Temperature

Stations

Nearby Weather Stations

Station Location Temp. Windchill Dew Point Humidity Wind Precip. Elev Updated Type
                   

Watches & Warnings

Special Statement
Issued: 3:22 PM MDT Jun. 21, 2018 – National Weather Service

... Strong thunderstorms late this afternoon across Yellowstone...

Strong thunderstorms will move into and develop across Yellowstone
National Park between 315 and 600 PM this afternoon. Storms are
generally moving west to east and could have small hail, gusty
winds to around 45 mph, heavy rains, and dangerous lightning
associated with them.

Please seek shelter in a sturdy building as these storms near your
area. When thunder roars go indoors!



322 PM MDT Thu Jun 21 2018

... Strong thunderstorms late this afternoon across Yellowstone...

Strong thunderstorms will move into and develop across Yellowstone
National Park between 315 and 600 PM this afternoon. Storms are
generally moving west to east and could have small hail, gusty
winds to around 45 mph, heavy rains, and dangerous lightning
associated with them.

Please seek shelter in a sturdy building as these storms near your
area. When thunder roars go indoors!